createdAt,value
2023-09-06T00:01:06.074Z,67.76
2023-09-06T00:03:57.485Z,68.56
2023-09-06T00:06:45.950Z,68.64
2023-09-06T00:09:34.406Z,68.50
2023-09-06T00:12:22.657Z,68.94
2023-09-06T00:15:11.565Z,69.52
2023-09-06T00:17:59.861Z,70.05
2023-09-06T00:20:48.285Z,70.91
2023-09-06T00:23:36.652Z,71.24
2023-09-06T00:26:24.915Z,71.46
2023-09-06T00:29:13.204Z,70.88
2023-09-06T00:32:01.444Z,70.90
2023-09-06T00:34:49.976Z,70.05
2023-09-06T00:37:38.804Z,70.45
2023-09-06T00:40:27.631Z,70.42
2023-09-06T00:43:16.633Z,69.66
2023-09-06T00:46:09.010Z,70.00
2023-09-06T00:48:57.781Z,69.83
2023-09-06T00:51:46.235Z,71.61
2023-09-06T00:54:34.681Z,71.15
2023-09-06T00:57:22.908Z,70.29
2023-09-06T01:00:22.870Z,70.69
2023-09-06T01:03:11.279Z,71.43
2023-09-06T01:06:10.873Z,70.63
2023-09-06T01:09:00.084Z,70.71
2023-09-06T01:11:48.385Z,70.47
2023-09-06T01:14:39.654Z,70.30
2023-09-06T01:17:28.448Z,70.32
2023-09-06T01:20:28.896Z,69.97
2023-09-06T01:23:35.823Z,69.60
2023-09-06T01:26:24.060Z,69.94
2023-09-06T01:29:12.771Z,70.12
2023-09-06T01:32:02.795Z,69.53
2023-09-06T01:34:51.350Z,69.79
2023-09-06T01:37:39.646Z,69.07
2023-09-06T01:40:28.983Z,68.93
2023-09-06T01:43:18.577Z,68.64
2023-09-06T01:46:07.100Z,69.65
2023-09-06T01:48:55.470Z,68.93
2023-09-06T01:51:43.874Z,69.31
2023-09-06T01:54:32.171Z,69.14
2023-09-06T01:57:20.500Z,68.81
2023-09-06T02:00:29.189Z,68.67
2023-09-06T02:03:18.317Z,68.32
2023-09-06T02:06:06.624Z,68.78
2023-09-06T02:08:54.972Z,67.11
2023-09-06T02:11:43.176Z,67.99
2023-09-06T02:14:31.427Z,69.13
2023-09-06T02:17:21.717Z,70.23
2023-09-06T02:20:18.869Z,69.91
2023-09-06T02:23:07.216Z,68.43
2023-09-06T02:25:55.592Z,69.66
2023-09-06T02:28:44.033Z,71.75
2023-09-06T02:31:34.624Z,72.38
2023-09-06T02:34:22.867Z,71.82
2023-09-06T02:37:11.284Z,71.13
2023-09-06T02:39:59.461Z,71.94
2023-09-06T02:42:50.223Z,72.62
2023-09-06T02:45:38.789Z,74.84
2023-09-06T02:48:28.958Z,74.94
2023-09-06T02:51:17.565Z,75.32
2023-09-06T02:54:05.957Z,75.50
2023-09-06T02:56:54.143Z,76.19
2023-09-06T02:59:42.490Z,76.57
2023-09-06T03:02:30.850Z,78.91
2023-09-06T03:05:19.172Z,79.52
2023-09-06T03:08:08.748Z,78.12
2023-09-06T03:10:57.097Z,77.99
2023-09-06T03:13:46.676Z,78.13
2023-09-06T03:16:40.475Z,77.93
2023-09-06T03:19:32.896Z,77.82
2023-09-06T03:22:23.199Z,77.85
2023-09-06T03:25:11.448Z,77.41
2023-09-06T03:28:02.997Z,78.58
2023-09-06T03:30:53.482Z,79.04
2023-09-06T03:33:41.837Z,78.63
2023-09-06T03:36:31.000Z,78.09
2023-09-06T03:39:42.241Z,78.07
2023-09-06T03:42:55.042Z,78.87
2023-09-06T03:46:12.283Z,78.33
2023-09-06T03:49:30.881Z,77.90
2023-09-06T03:52:44.009Z,78.27
2023-09-06T03:56:02.332Z,78.11
2023-09-06T03:59:18.562Z,78.31
2023-09-06T04:02:31.728Z,78.01
2023-09-06T04:05:43.004Z,77.09
2023-09-06T04:08:58.005Z,77.97
2023-09-06T04:12:11.432Z,78.12
2023-09-06T04:15:26.377Z,77.62
2023-09-06T04:18:40.527Z,77.05
2023-09-06T04:21:56.449Z,77.32
2023-09-06T04:25:10.162Z,77.51
2023-09-06T04:28:25.554Z,77.01
2023-09-06T04:31:41.450Z,77.38
2023-09-06T04:34:57.540Z,76.48
2023-09-06T04:38:08.972Z,75.43
2023-09-06T04:41:22.032Z,74.95
2023-09-06T04:44:36.477Z,74.72
2023-09-06T04:47:52.412Z,73.96
2023-09-06T04:51:07.067Z,74.60
2023-09-06T04:54:22.235Z,75.46
2023-09-06T04:57:35.037Z,74.94
2023-09-06T05:00:50.526Z,73.47
2023-09-06T05:04:01.767Z,71.45
2023-09-06T05:07:16.306Z,70.16
2023-09-06T05:10:32.513Z,68.72
2023-09-06T05:13:46.029Z,66.88
2023-09-06T05:16:59.058Z,65.32
2023-09-06T05:20:14.550Z,63.13
2023-09-06T05:23:37.978Z,62.42
2023-09-06T05:26:52.180Z,60.29
2023-09-06T05:30:05.918Z,58.46
2023-09-06T05:33:21.144Z,57.10
2023-09-06T05:36:36.194Z,56.85
2023-09-06T05:39:49.187Z,55.35
2023-09-06T05:43:04.263Z,53.53
2023-09-06T05:46:32.439Z,51.83
2023-09-06T05:49:57.570Z,51.20
2023-09-06T05:53:11.605Z,49.45
2023-09-06T05:56:27.241Z,48.22
2023-09-06T05:59:40.335Z,47.32
2023-09-06T06:02:57.757Z,46.39
2023-09-06T06:06:11.074Z,45.78
2023-09-06T06:09:26.552Z,44.46
2023-09-06T06:12:40.652Z,43.11
2023-09-06T06:15:56.016Z,42.85
2023-09-06T06:19:09.377Z,42.79
2023-09-06T06:22:22.678Z,42.97
2023-09-06T06:25:36.038Z,43.06
2023-09-06T06:28:51.907Z,42.42
2023-09-06T06:32:05.499Z,41.27
2023-09-06T06:35:20.871Z,39.99
2023-09-06T06:38:34.395Z,39.30
2023-09-06T06:41:49.318Z,38.97
2023-09-06T06:45:00.214Z,38.24
2023-09-06T06:48:13.031Z,37.92
2023-09-06T06:51:26.234Z,37.87
2023-09-06T06:54:41.772Z,37.62
2023-09-06T06:57:53.333Z,37.37
2023-09-06T07:01:08.614Z,36.86
2023-09-06T07:04:22.325Z,35.96
2023-09-06T07:07:35.257Z,34.75
2023-09-06T07:10:46.464Z,34.02
2023-09-06T07:14:02.000Z,32.85
2023-09-06T07:17:15.610Z,32.97
2023-09-06T07:20:30.639Z,32.69
2023-09-06T07:23:48.309Z,31.43
2023-09-06T07:27:01.498Z,31.67
2023-09-06T07:30:16.916Z,31.71
2023-09-06T07:33:23.815Z,31.60
2023-09-06T07:36:30.619Z,31.60
2023-09-06T07:39:39.118Z,30.26
2023-09-06T07:42:47.494Z,29.67
2023-09-06T07:46:00.665Z,30.58
2023-09-06T07:49:11.681Z,30.15
2023-09-06T07:52:24.856Z,29.20
2023-09-06T07:55:35.513Z,29.00
2023-09-06T07:58:48.735Z,29.53
2023-09-06T08:01:56.187Z,29.23
2023-09-06T08:05:03.102Z,28.81
2023-09-06T08:08:11.988Z,28.37
2023-09-06T08:11:20.459Z,28.01
2023-09-06T08:14:27.224Z,27.80
2023-09-06T08:18:16.221Z,27.12
2023-09-06T08:22:10.636Z,26.89
2023-09-06T08:26:05.143Z,27.35
2023-09-06T08:29:49.969Z,26.14
2023-09-06T08:33:35.083Z,24.99
2023-09-06T08:37:20.404Z,24.96
2023-09-06T08:41:11.935Z,25.09
2023-09-06T08:45:05.230Z,26.04
2023-09-06T08:48:50.235Z,26.68
2023-09-06T08:52:34.909Z,27.58
2023-09-06T08:56:19.875Z,27.42
2023-09-06T09:00:12.724Z,27.19
2023-09-06T09:04:10.292Z,27.18
2023-09-06T09:08:00.989Z,26.69
2023-09-06T09:11:51.154Z,25.99
2023-09-06T09:15:42.243Z,25.66
2023-09-06T09:19:33.266Z,26.59
2023-09-06T09:23:25.630Z,26.37
2023-09-06T09:27:20.903Z,25.76
2023-09-06T09:31:12.379Z,25.88
2023-09-06T09:34:57.224Z,25.57
2023-09-06T09:38:46.061Z,25.03
2023-09-06T09:42:45.072Z,25.25
2023-09-06T09:46:41.337Z,24.98
2023-09-06T09:50:31.225Z,24.68
2023-09-06T09:54:16.028Z,24.63
2023-09-06T09:58:01.894Z,24.09
2023-09-06T10:01:46.699Z,23.93
2023-09-06T10:05:40.003Z,24.21
2023-09-06T10:09:34.852Z,24.20
2023-09-06T10:13:26.301Z,23.41
2023-09-06T10:17:25.837Z,23.24
2023-09-06T10:21:25.681Z,23.30
2023-09-06T10:25:19.650Z,23.83
2023-09-06T10:29:11.899Z,23.36
2023-09-06T10:32:56.950Z,22.98
2023-09-06T10:36:44.136Z,22.59
2023-09-06T10:40:32.100Z,22.96
2023-09-06T10:44:28.786Z,23.22
2023-09-06T10:48:21.884Z,23.19
2023-09-06T10:52:14.317Z,23.50
2023-09-06T10:56:08.308Z,22.99
2023-09-06T11:00:03.275Z,22.50
2023-09-06T11:03:48.013Z,22.94
2023-09-06T11:07:46.810Z,23.02
2023-09-06T11:11:39.842Z,23.08
2023-09-06T11:15:31.293Z,23.15
2023-09-06T11:19:37.024Z,23.24
2023-09-06T11:23:39.271Z,23.48
2023-09-06T11:27:41.027Z,23.40
2023-09-06T11:31:39.274Z,23.76
2023-09-06T11:35:40.642Z,23.57
2023-09-06T11:39:38.160Z,23.86
2023-09-06T11:43:39.200Z,23.80
2023-09-06T11:47:37.247Z,23.88
2023-09-06T11:51:41.964Z,24.18
2023-09-06T11:55:43.281Z,24.60
2023-09-06T11:59:41.228Z,24.94
2023-09-06T12:03:42.227Z,24.73
2023-09-06T12:07:39.181Z,24.19
2023-09-06T12:11:42.280Z,23.73
2023-09-06T12:15:40.132Z,23.17
2023-09-06T12:19:41.184Z,23.19
2023-09-06T12:23:38.970Z,23.71
2023-09-06T12:27:40.433Z,23.49
2023-09-06T12:31:38.499Z,23.19
2023-09-06T12:35:40.468Z,22.87
2023-09-06T12:39:38.330Z,22.89
2023-09-06T12:43:39.977Z,22.99
2023-09-06T12:47:37.383Z,23.50
2023-09-06T12:51:38.748Z,24.05
2023-09-06T12:55:36.189Z,24.27
2023-09-06T12:59:37.465Z,24.99
2023-09-06T13:03:35.388Z,25.20
2023-09-06T13:07:36.638Z,25.52
2023-09-06T13:11:34.235Z,25.37
2023-09-06T13:15:35.913Z,24.69
2023-09-06T13:19:15.646Z,24.19
2023-09-06T13:22:54.967Z,23.51
2023-09-06T13:26:32.271Z,22.85
2023-09-06T13:30:12.188Z,23.55
2023-09-06T13:33:50.572Z,23.52
2023-09-06T13:37:29.962Z,23.23
2023-09-06T13:41:07.314Z,22.94
2023-09-06T13:44:45.980Z,22.54
2023-09-06T13:48:23.235Z,22.74
2023-09-06T13:52:03.932Z,22.24
2023-09-06T13:55:40.307Z,22.28
2023-09-06T13:59:21.403Z,22.62
2023-09-06T14:02:59.748Z,23.48
2023-09-06T14:06:41.025Z,23.48
2023-09-06T14:10:19.396Z,23.75
2023-09-06T14:14:00.022Z,23.85
2023-09-06T14:17:37.470Z,24.15
2023-09-06T14:21:18.534Z,24.43
2023-09-06T14:24:55.506Z,24.82
2023-09-06T14:28:35.932Z,25.19
2023-09-06T14:32:12.601Z,25.28
2023-09-06T14:35:53.671Z,25.59
2023-09-06T14:39:34.419Z,25.85
2023-09-06T14:43:11.458Z,25.93
2023-09-06T14:46:51.829Z,26.32
2023-09-06T14:50:28.662Z,26.22
2023-09-06T14:54:09.431Z,26.43
2023-09-06T14:57:46.647Z,26.70
2023-09-06T15:01:27.485Z,26.82
2023-09-06T15:05:04.524Z,26.88
2023-09-06T15:08:45.046Z,26.86
2023-09-06T15:12:22.662Z,27.31
2023-09-06T15:16:03.403Z,27.93
2023-09-06T15:19:46.462Z,28.52
2023-09-06T15:23:17.645Z,28.79
2023-09-06T15:26:50.672Z,28.88
2023-09-06T15:30:21.322Z,29.05
2023-09-06T15:33:52.550Z,29.04
2023-09-06T15:37:24.936Z,29.35
2023-09-06T15:40:55.592Z,29.57
2023-09-06T15:44:27.955Z,29.85
2023-09-06T15:47:58.545Z,30.17
2023-09-06T15:51:30.964Z,30.58
2023-09-06T15:55:01.769Z,30.99
2023-09-06T15:58:34.227Z,31.14
2023-09-06T16:02:04.591Z,31.95
2023-09-06T16:05:36.792Z,32.36
2023-09-06T16:09:07.523Z,33.04
2023-09-06T16:12:40.024Z,33.58
2023-09-06T16:16:10.472Z,34.07
2023-09-06T16:19:43.309Z,34.42
2023-09-06T16:23:14.574Z,35.07
2023-09-06T16:26:46.964Z,35.66
2023-09-06T16:30:17.762Z,36.70
2023-09-06T16:33:48.188Z,37.41
2023-09-06T16:37:20.518Z,37.99
2023-09-06T16:40:51.630Z,38.74
2023-09-06T16:44:24.080Z,39.58
2023-09-06T16:47:54.595Z,39.82
2023-09-06T16:51:24.873Z,40.02
2023-09-06T16:54:49.124Z,40.00
2023-09-06T16:58:13.453Z,40.28
2023-09-06T17:01:37.764Z,40.97
2023-09-06T17:05:02.184Z,41.34
2023-09-06T17:08:32.944Z,42.08
2023-09-06T17:12:04.154Z,42.97
2023-09-06T17:15:35.383Z,43.57
2023-09-06T17:19:06.757Z,43.48
2023-09-06T17:22:39.062Z,45.14
2023-09-06T17:26:09.797Z,46.24
2023-09-06T17:29:40.764Z,46.96
2023-09-06T17:33:11.787Z,47.95
2023-09-06T17:36:42.532Z,49.90
2023-09-06T17:40:13.868Z,50.00
2023-09-06T17:43:50.182Z,50.42
2023-09-06T17:47:25.274Z,50.99
2023-09-06T17:51:00.564Z,52.54
2023-09-06T17:54:31.641Z,53.79
2023-09-06T17:58:04.272Z,55.42
2023-09-06T18:01:32.485Z,56.18
2023-09-06T18:05:07.068Z,56.57
2023-09-06T18:08:42.108Z,56.09
2023-09-06T18:12:14.552Z,56.81
2023-09-06T18:15:44.950Z,58.69
2023-09-06T18:19:16.944Z,58.01
2023-09-06T18:22:47.387Z,59.59
2023-09-06T18:26:18.090Z,59.87
2023-09-06T18:29:48.495Z,60.33
2023-09-06T18:33:19.262Z,61.68
2023-09-06T18:36:43.658Z,61.82
2023-09-06T18:40:13.821Z,61.83
2023-09-06T18:43:44.334Z,62.12
2023-09-06T18:47:15.664Z,62.06
2023-09-06T18:50:45.972Z,62.33
2023-09-06T18:54:16.818Z,61.96
2023-09-06T18:58:03.365Z,62.22
2023-09-06T19:01:30.377Z,62.35
2023-09-06T19:04:58.725Z,63.23
2023-09-06T19:08:30.015Z,63.40
2023-09-06T19:12:00.905Z,62.97
2023-09-06T19:15:32.891Z,63.18
2023-09-06T19:19:10.116Z,64.21
2023-09-06T19:22:52.646Z,65.08
2023-09-06T19:26:25.206Z,66.44
2023-09-06T19:30:01.603Z,68.26
2023-09-06T19:33:34.161Z,70.48
2023-09-06T19:37:10.374Z,71.43
2023-09-06T19:40:42.795Z,71.23
2023-09-06T19:44:19.184Z,71.30
2023-09-06T19:47:57.962Z,70.93
2023-09-06T19:51:40.414Z,70.38
2023-09-06T19:55:19.818Z,72.21
2023-09-06T19:58:56.277Z,72.10
2023-09-06T20:02:38.939Z,73.21
2023-09-06T20:06:20.008Z,75.60
2023-09-06T20:09:57.101Z,76.22
2023-09-06T20:13:41.477Z,78.26
2023-09-06T20:17:20.727Z,76.99
2023-09-06T20:20:57.934Z,76.70
2023-09-06T20:24:34.186Z,78.24
2023-09-06T20:28:06.454Z,79.48
2023-09-06T20:31:47.764Z,79.75
2023-09-06T20:35:25.146Z,81.25
2023-09-06T20:39:06.250Z,80.58
2023-09-06T20:42:46.224Z,80.40
2023-09-06T20:46:27.151Z,82.08
2023-09-06T20:50:04.122Z,82.11
2023-09-06T20:53:44.785Z,81.59
2023-09-06T20:57:22.061Z,82.33
2023-09-06T21:01:00.863Z,82.36
2023-09-06T21:04:37.562Z,82.77
2023-09-06T21:08:18.632Z,84.36
2023-09-06T21:11:55.089Z,82.82
2023-09-06T21:15:35.928Z,82.77
2023-09-06T21:19:13.236Z,83.70
2023-09-06T21:22:53.740Z,83.88
2023-09-06T21:26:30.307Z,83.54
2023-09-06T21:30:11.153Z,84.32
2023-09-06T21:33:48.111Z,83.91
2023-09-06T21:37:28.714Z,83.98
2023-09-06T21:41:06.327Z,84.50
2023-09-06T21:44:46.811Z,85.60
2023-09-06T21:48:23.564Z,85.42
2023-09-06T21:52:04.784Z,85.77
2023-09-06T21:55:41.235Z,85.45
2023-09-06T21:59:21.803Z,84.57
2023-09-06T22:02:58.349Z,85.17
2023-09-06T22:06:57.768Z,86.35
2023-09-06T22:10:54.091Z,87.49
2023-09-06T22:14:50.212Z,88.61
2023-09-06T22:18:30.816Z,87.22
2023-09-06T22:22:08.341Z,87.42
2023-09-06T22:25:48.817Z,88.83
2023-09-06T22:29:26.198Z,88.80
2023-09-06T22:33:06.789Z,87.60
2023-09-06T22:36:43.280Z,88.97
2023-09-06T22:40:23.779Z,88.86
2023-09-06T22:44:01.273Z,89.33
2023-09-06T22:47:42.346Z,89.77
2023-09-06T22:51:19.241Z,89.12
2023-09-06T22:55:00.448Z,88.13
2023-09-06T22:58:37.407Z,87.20
2023-09-06T23:02:18.189Z,85.67
2023-09-06T23:05:55.383Z,86.05
2023-09-06T23:09:35.817Z,85.73
2023-09-06T23:13:13.282Z,86.92
2023-09-06T23:16:54.399Z,89.04
2023-09-06T23:19:26.545Z,88.76
2023-09-06T23:21:58.493Z,90.55
2023-09-06T23:24:26.626Z,90.97
2023-09-06T23:26:59.910Z,90.58
2023-09-06T23:29:36.129Z,91.18
2023-09-06T23:32:06.361Z,90.65
2023-09-06T23:34:35.668Z,89.40
2023-09-06T23:37:06.609Z,89.48
2023-09-06T23:39:34.818Z,89.63
2023-09-06T23:42:11.180Z,88.67
2023-09-06T23:44:42.404Z,87.44
2023-09-06T23:47:12.038Z,87.56
2023-09-06T23:49:40.466Z,87.84
2023-09-06T23:52:08.241Z,87.37
2023-09-06T23:54:46.297Z,87.91
2023-09-06T23:57:19.533Z,86.34
2023-09-06T23:59:48.060Z,88.16
